sensor_id;sensor_type;location;lat;lon;timestamp;temperature;humidity
40077;DHT22;25777;47.824;18.982;2023-09-12T00:02:22;16.10;99.90
40077;DHT22;25777;47.824;18.982;2023-09-12T00:04:48;16.10;99.90
40077;DHT22;25777;47.824;18.982;2023-09-12T00:07:25;16.00;99.90
40077;DHT22;25777;47.824;18.982;2023-09-12T00:09:51;16.00;99.90
40077;DHT22;25777;47.824;18.982;2023-09-12T00:12:24;15.90;99.90
40077;DHT22;25777;47.824;18.982;2023-09-12T00:14:53;15.90;99.90
40077;DHT22;25777;47.824;18.982;2023-09-12T00:17:23;15.90;99.90
40077;DHT22;25777;47.824;18.982;2023-09-12T00:19:49;15.80;99.90
40077;DHT22;25777;47.824;18.982;2023-09-12T00:22:23;15.70;99.90
40077;DHT22;25777;47.824;18.982;2023-09-12T00:24:50;15.70;99.90
40077;DHT22;25777;47.824;18.982;2023-09-12T00:27:29;15.70;99.90
40077;DHT22;25777;47.824;18.982;2023-09-12T00:30:04;15.70;99.90
40077;DHT22;25777;47.824;18.982;2023-09-12T00:32:46;15.80;99.90
40077;DHT22;25777;47.824;18.982;2023-09-12T00:35:28;15.70;99.90
40077;DHT22;25777;47.824;18.982;2023-09-12T00:37:56;15.70;99.90
40077;DHT22;25777;47.824;18.982;2023-09-12T00:40:25;15.70;99.90
40077;DHT22;25777;47.824;18.982;2023-09-12T00:42:53;15.70;99.90
40077;DHT22;25777;47.824;18.982;2023-09-12T00:45:27;15.70;99.90
40077;DHT22;25777;47.824;18.982;2023-09-12T00:48:01;15.60;99.90
40077;DHT22;25777;47.824;18.982;2023-09-12T00:50:47;15.60;99.90
40077;DHT22;25777;47.824;18.982;2023-09-12T00:53:15;15.60;99.90
40077;DHT22;25777;47.824;18.982;2023-09-12T00:55:48;15.50;99.90
40077;DHT22;25777;47.824;18.982;2023-09-12T00:58:28;15.50;99.90
40077;DHT22;25777;47.824;18.982;2023-09-12T01:00:54;15.30;99.90
40077;DHT22;25777;47.824;18.982;2023-09-12T01:03:24;15.30;99.90
40077;DHT22;25777;47.824;18.982;2023-09-12T01:05:51;15.30;99.90
40077;DHT22;25777;47.824;18.982;2023-09-12T01:08:19;15.30;99.90
40077;DHT22;25777;47.824;18.982;2023-09-12T01:10:48;15.40;99.90
40077;DHT22;25777;47.824;18.982;2023-09-12T01:13:19;15.40;99.90
40077;DHT22;25777;47.824;18.982;2023-09-12T01:16:19;15.50;99.90
40077;DHT22;25777;47.824;18.982;2023-09-12T01:18:46;15.50;99.90
40077;DHT22;25777;47.824;18.982;2023-09-12T01:27:24;15.30;99.90
40077;DHT22;25777;47.824;18.982;2023-09-12T01:29:56;15.20;99.90
40077;DHT22;25777;47.824;18.982;2023-09-12T01:32:41;15.30;99.90
40077;DHT22;25777;47.824;18.982;2023-09-12T01:35:08;15.30;99.90
40077;DHT22;25777;47.824;18.982;2023-09-12T01:37:37;15.20;99.90
40077;DHT22;25777;47.824;18.982;2023-09-12T01:40:03;15.20;99.90
40077;DHT22;25777;47.824;18.982;2023-09-12T01:42:36;15.20;99.90
40077;DHT22;25777;47.824;18.982;2023-09-12T01:45:03;15.20;99.90
40077;DHT22;25777;47.824;18.982;2023-09-12T01:47:35;15.20;99.90
40077;DHT22;25777;47.824;18.982;2023-09-12T01:50:04;15.20;99.90
40077;DHT22;25777;47.824;18.982;2023-09-12T01:52:32;15.20;99.90
40077;DHT22;25777;47.824;18.982;2023-09-12T01:55:05;15.20;99.90
40077;DHT22;25777;47.824;18.982;2023-09-12T01:57:52;15.00;99.90
40077;DHT22;25777;47.824;18.982;2023-09-12T02:00:18;15.10;99.90
40077;DHT22;25777;47.824;18.982;2023-09-12T02:02:50;15.10;99.90
40077;DHT22;25777;47.824;18.982;2023-09-12T02:05:20;15.10;99.90
40077;DHT22;25777;47.824;18.982;2023-09-12T02:07:51;15.10;99.90
40077;DHT22;25777;47.824;18.982;2023-09-12T02:10:21;15.10;99.90
40077;DHT22;25777;47.824;18.982;2023-09-12T02:12:53;15.00;99.90
40077;DHT22;25777;47.824;18.982;2023-09-12T02:15:20;15.00;99.90
40077;DHT22;25777;47.824;18.982;2023-09-12T02:17:48;15.00;99.90
40077;DHT22;25777;47.824;18.982;2023-09-12T02:20:20;15.00;99.90
40077;DHT22;25777;47.824;18.982;2023-09-12T02:22:48;14.90;99.90
40077;DHT22;25777;47.824;18.982;2023-09-12T02:25:17;14.90;99.90
40077;DHT22;25777;47.824;18.982;2023-09-12T02:27:43;15.00;99.90
40077;DHT22;25777;47.824;18.982;2023-09-12T02:30:09;15.10;99.90
40077;DHT22;25777;47.824;18.982;2023-09-12T02:32:35;15.00;99.90
40077;DHT22;25777;47.824;18.982;2023-09-12T02:35:11;14.90;99.90
40077;DHT22;25777;47.824;18.982;2023-09-12T02:37:46;14.70;99.90
40077;DHT22;25777;47.824;18.982;2023-09-12T02:40:12;14.80;99.90
40077;DHT22;25777;47.824;18.982;2023-09-12T02:42:45;14.80;99.90
40077;DHT22;25777;47.824;18.982;2023-09-12T02:45:24;14.80;99.90
40077;DHT22;25777;47.824;18.982;2023-09-12T02:47:49;14.70;99.90
40077;DHT22;25777;47.824;18.982;2023-09-12T02:50:24;14.70;99.90
40077;DHT22;25777;47.824;18.982;2023-09-12T02:52:59;14.70;99.90
40077;DHT22;25777;47.824;18.982;2023-09-12T02:55:25;14.90;99.90
40077;DHT22;25777;47.824;18.982;2023-09-12T02:57:56;14.90;99.90
40077;DHT22;25777;47.824;18.982;2023-09-12T03:00:24;14.70;99.90
40077;DHT22;25777;47.824;18.982;2023-09-12T03:02:50;14.60;99.90
40077;DHT22;25777;47.824;18.982;2023-09-12T03:05:18;14.30;99.90
40077;DHT22;25777;47.824;18.982;2023-09-12T03:07:44;14.40;99.90
40077;DHT22;25777;47.824;18.982;2023-09-12T03:10:10;14.50;99.90
40077;DHT22;25777;47.824;18.982;2023-09-12T03:12:40;14.50;99.90
40077;DHT22;25777;47.824;18.982;2023-09-12T03:15:35;14.60;99.90
40077;DHT22;25777;47.824;18.982;2023-09-12T03:18:02;14.70;99.90
40077;DHT22;25777;47.824;18.982;2023-09-12T03:20:41;14.70;99.90
40077;DHT22;25777;47.824;18.982;2023-09-12T03:23:10;14.70;99.90
40077;DHT22;25777;47.824;18.982;2023-09-12T03:25:38;14.70;99.90
40077;DHT22;25777;47.824;18.982;2023-09-12T03:28:17;14.70;99.90
40077;DHT22;25777;47.824;18.982;2023-09-12T03:30:44;14.60;99.90
40077;DHT22;25777;47.824;18.982;2023-09-12T03:33:15;14.50;99.90
40077;DHT22;25777;47.824;18.982;2023-09-12T03:35:44;14.50;99.90
40077;DHT22;25777;47.824;18.982;2023-09-12T03:38:17;14.50;99.90
40077;DHT22;25777;47.824;18.982;2023-09-12T03:40:45;14.50;99.90
40077;DHT22;25777;47.824;18.982;2023-09-12T03:43:11;14.40;99.90
40077;DHT22;25777;47.824;18.982;2023-09-12T03:45:37;14.40;99.90
40077;DHT22;25777;47.824;18.982;2023-09-12T03:48:03;14.50;99.90
40077;DHT22;25777;47.824;18.982;2023-09-12T03:50:31;14.60;99.90
40077;DHT22;25777;47.824;18.982;2023-09-12T03:53:04;14.60;99.90
40077;DHT22;25777;47.824;18.982;2023-09-12T03:55:55;14.50;99.90
40077;DHT22;25777;47.824;18.982;2023-09-12T03:58:24;14.40;99.90
40077;DHT22;25777;47.824;18.982;2023-09-12T04:00:50;14.30;99.90
40077;DHT22;25777;47.824;18.982;2023-09-12T04:03:17;14.30;99.90
40077;DHT22;25777;47.824;18.982;2023-09-12T04:05:48;14.40;99.90
40077;DHT22;25777;47.824;18.982;2023-09-12T04:08:14;14.40;99.90
40077;DHT22;25777;47.824;18.982;2023-09-12T04:10:42;14.30;99.90
40077;DHT22;25777;47.824;18.982;2023-09-12T04:13:11;14.30;99.90
40077;DHT22;25777;47.824;18.982;2023-09-12T04:15:36;14.30;99.90
40077;DHT22;25777;47.824;18.982;2023-09-12T04:18:04;14.30;99.90
40077;DHT22;25777;47.824;18.982;2023-09-12T04:20:40;14.30;99.90
40077;DHT22;25777;47.824;18.982;2023-09-12T04:23:06;14.30;99.90
40077;DHT22;25777;47.824;18.982;2023-09-12T04:25:32;14.30;99.90
40077;DHT22;25777;47.824;18.982;2023-09-12T04:28:01;14.30;99.90
40077;DHT22;25777;47.824;18.982;2023-09-12T04:30:33;14.30;99.90
40077;DHT22;25777;47.824;18.982;2023-09-12T04:33:01;14.30;99.90
40077;DHT22;25777;47.824;18.982;2023-09-12T04:35:35;14.30;99.90
40077;DHT22;25777;47.824;18.982;2023-09-12T04:38:03;14.30;99.90
40077;DHT22;25777;47.824;18.982;2023-09-12T04:40:29;14.40;99.90
40077;DHT22;25777;47.824;18.982;2023-09-12T04:43:00;14.40;99.90
40077;DHT22;25777;47.824;18.982;2023-09-12T04:45:38;14.40;99.90
40077;DHT22;25777;47.824;18.982;2023-09-12T04:48:04;14.40;99.90
40077;DHT22;25777;47.824;18.982;2023-09-12T04:50:41;14.40;99.90
40077;DHT22;25777;47.824;18.982;2023-09-12T04:53:13;14.50;99.90
40077;DHT22;25777;47.824;18.982;2023-09-12T04:55:40;14.50;99.90
40077;DHT22;25777;47.824;18.982;2023-09-12T04:58:19;14.60;99.90
40077;DHT22;25777;47.824;18.982;2023-09-12T05:00:45;14.70;99.90
40077;DHT22;25777;47.824;18.982;2023-09-12T05:03:19;14.70;99.90
40077;DHT22;25777;47.824;18.982;2023-09-12T05:05:54;14.70;99.90
40077;DHT22;25777;47.824;18.982;2023-09-12T05:08:31;14.80;99.90
40077;DHT22;25777;47.824;18.982;2023-09-12T05:10:57;14.90;99.90
40077;DHT22;25777;47.824;18.982;2023-09-12T05:13:23;15.00;99.90
40077;DHT22;25777;47.824;18.982;2023-09-12T05:15:49;15.00;99.90
40077;DHT22;25777;47.824;18.982;2023-09-12T05:18:15;15.10;99.90
40077;DHT22;25777;47.824;18.982;2023-09-12T05:20:51;15.10;99.90
40077;DHT22;25777;47.824;18.982;2023-09-12T05:23:26;15.10;99.90
40077;DHT22;25777;47.824;18.982;2023-09-12T05:26:08;15.20;99.90
40077;DHT22;25777;47.824;18.982;2023-09-12T05:28:35;15.20;99.90
40077;DHT22;25777;47.824;18.982;2023-09-12T05:31:02;15.20;99.90
40077;DHT22;25777;47.824;18.982;2023-09-12T05:33:29;15.30;99.90
40077;DHT22;25777;47.824;18.982;2023-09-12T05:35:55;15.40;99.90
40077;DHT22;25777;47.824;18.982;2023-09-12T05:38:20;15.40;99.90
40077;DHT22;25777;47.824;18.982;2023-09-12T05:40:46;15.40;99.90
40077;DHT22;25777;47.824;18.982;2023-09-12T05:43:16;15.50;99.90
40077;DHT22;25777;47.824;18.982;2023-09-12T05:45:42;15.60;99.90
40077;DHT22;25777;47.824;18.982;2023-09-12T05:48:08;15.60;99.90
40077;DHT22;25777;47.824;18.982;2023-09-12T05:50:36;15.70;99.90
40077;DHT22;25777;47.824;18.982;2023-09-12T05:53:03;15.80;99.90
40077;DHT22;25777;47.824;18.982;2023-09-12T05:55:28;15.90;99.90
40077;DHT22;25777;47.824;18.982;2023-09-12T05:57:54;16.00;99.90
40077;DHT22;25777;47.824;18.982;2023-09-12T06:00:21;16.00;99.90
40077;DHT22;25777;47.824;18.982;2023-09-12T06:02:47;16.20;99.90
40077;DHT22;25777;47.824;18.982;2023-09-12T06:05:14;16.40;99.90
40077;DHT22;25777;47.824;18.982;2023-09-12T06:07:40;16.60;99.90
40077;DHT22;25777;47.824;18.982;2023-09-12T06:10:10;16.80;99.90
40077;DHT22;25777;47.824;18.982;2023-09-12T06:12:36;17.10;99.90
40077;DHT22;25777;47.824;18.982;2023-09-12T06:15:02;17.20;99.90
40077;DHT22;25777;47.824;18.982;2023-09-12T06:17:30;17.40;99.90
40077;DHT22;25777;47.824;18.982;2023-09-12T06:19:55;17.60;99.90
40077;DHT22;25777;47.824;18.982;2023-09-12T06:22:22;17.80;99.90
40077;DHT22;25777;47.824;18.982;2023-09-12T06:24:49;17.90;99.90
40077;DHT22;25777;47.824;18.982;2023-09-12T06:27:15;18.00;99.90
40077;DHT22;25777;47.824;18.982;2023-09-12T06:29:47;18.10;99.90
40077;DHT22;25777;47.824;18.982;2023-09-12T06:32:15;18.20;99.90
40077;DHT22;25777;47.824;18.982;2023-09-12T06:34:42;18.40;99.90
40077;DHT22;25777;47.824;18.982;2023-09-12T06:37:08;18.50;99.90
40077;DHT22;25777;47.824;18.982;2023-09-12T06:39:34;18.60;99.90
40077;DHT22;25777;47.824;18.982;2023-09-12T06:42:00;18.70;99.90
40077;DHT22;25777;47.824;18.982;2023-09-12T06:44:26;18.70;99.90
40077;DHT22;25777;47.824;18.982;2023-09-12T06:46:51;18.70;99.90
40077;DHT22;25777;47.824;18.982;2023-09-12T06:49:17;18.80;99.90
40077;DHT22;25777;47.824;18.982;2023-09-12T06:51:43;18.90;99.90
40077;DHT22;25777;47.824;18.982;2023-09-12T06:54:09;19.00;99.90
40077;DHT22;25777;47.824;18.982;2023-09-12T06:56:35;19.10;99.90
40077;DHT22;25777;47.824;18.982;2023-09-12T06:59:03;19.20;99.90
40077;DHT22;25777;47.824;18.982;2023-09-12T07:01:30;19.30;99.90
40077;DHT22;25777;47.824;18.982;2023-09-12T07:03:56;19.50;99.90
40077;DHT22;25777;47.824;18.982;2023-09-12T07:06:22;19.70;99.90
40077;DHT22;25777;47.824;18.982;2023-09-12T07:08:49;19.70;99.90
40077;DHT22;25777;47.824;18.982;2023-09-12T07:11:14;19.80;99.90
40077;DHT22;25777;47.824;18.982;2023-09-12T07:13:40;20.00;99.90
40077;DHT22;25777;47.824;18.982;2023-09-12T07:16:06;20.10;99.90
40077;DHT22;25777;47.824;18.982;2023-09-12T07:18:32;20.40;99.90
40077;DHT22;25777;47.824;18.982;2023-09-12T07:21:03;20.60;99.90
40077;DHT22;25777;47.824;18.982;2023-09-12T07:23:29;20.60;99.90
40077;DHT22;25777;47.824;18.982;2023-09-12T07:25:56;20.90;99.90
40077;DHT22;25777;47.824;18.982;2023-09-12T07:28:26;21.00;99.90
40077;DHT22;25777;47.824;18.982;2023-09-12T07:30:53;21.20;99.90
40077;DHT22;25777;47.824;18.982;2023-09-12T07:33:19;21.40;99.90
40077;DHT22;25777;47.824;18.982;2023-09-12T07:35:45;21.50;99.90
40077;DHT22;25777;47.824;18.982;2023-09-12T07:38:12;21.70;99.90
40077;DHT22;25777;47.824;18.982;2023-09-12T07:40:41;21.80;99.90
40077;DHT22;25777;47.824;18.982;2023-09-12T07:43:07;22.00;99.90
40077;DHT22;25777;47.824;18.982;2023-09-12T07:45:33;22.10;99.90
40077;DHT22;25777;47.824;18.982;2023-09-12T07:48:07;22.20;99.90
40077;DHT22;25777;47.824;18.982;2023-09-12T07:50:33;22.50;99.90
40077;DHT22;25777;47.824;18.982;2023-09-12T07:52:59;22.60;99.90
40077;DHT22;25777;47.824;18.982;2023-09-12T07:55:24;22.90;99.90
40077;DHT22;25777;47.824;18.982;2023-09-12T07:57:50;23.10;99.90
40077;DHT22;25777;47.824;18.982;2023-09-12T08:00:16;23.10;99.90
40077;DHT22;25777;47.824;18.982;2023-09-12T08:02:42;23.20;99.80
40077;DHT22;25777;47.824;18.982;2023-09-12T08:05:08;23.30;98.70
40077;DHT22;25777;47.824;18.982;2023-09-12T08:07:35;23.60;97.20
40077;DHT22;25777;47.824;18.982;2023-09-12T08:10:01;23.70;96.30
40077;DHT22;25777;47.824;18.982;2023-09-12T08:12:28;23.90;96.40
40077;DHT22;25777;47.824;18.982;2023-09-12T08:14:55;23.90;95.00
40077;DHT22;25777;47.824;18.982;2023-09-12T08:17:22;24.00;94.80
40077;DHT22;25777;47.824;18.982;2023-09-12T08:19:48;24.10;92.00
40077;DHT22;25777;47.824;18.982;2023-09-12T08:22:15;24.30;91.60
40077;DHT22;25777;47.824;18.982;2023-09-12T08:24:41;24.50;91.70
40077;DHT22;25777;47.824;18.982;2023-09-12T08:27:07;24.60;91.30
40077;DHT22;25777;47.824;18.982;2023-09-12T08:29:33;24.70;91.80
40077;DHT22;25777;47.824;18.982;2023-09-12T08:31:59;24.80;92.10
40077;DHT22;25777;47.824;18.982;2023-09-12T08:34:26;25.00;90.70
40077;DHT22;25777;47.824;18.982;2023-09-12T08:36:52;25.10;91.10
40077;DHT22;25777;47.824;18.982;2023-09-12T08:39:25;25.30;91.40
40077;DHT22;25777;47.824;18.982;2023-09-12T08:41:52;25.40;90.40
40077;DHT22;25777;47.824;18.982;2023-09-12T08:44:20;25.60;88.50
40077;DHT22;25777;47.824;18.982;2023-09-12T08:46:46;25.60;86.90
40077;DHT22;25777;47.824;18.982;2023-09-12T08:49:12;25.70;85.10
40077;DHT22;25777;47.824;18.982;2023-09-12T08:51:41;25.80;85.10
40077;DHT22;25777;47.824;18.982;2023-09-12T08:54:07;26.20;83.80
40077;DHT22;25777;47.824;18.982;2023-09-12T08:56:36;26.40;82.90
40077;DHT22;25777;47.824;18.982;2023-09-12T08:59:05;26.40;86.10
40077;DHT22;25777;47.824;18.982;2023-09-12T09:01:32;26.50;83.80
40077;DHT22;25777;47.824;18.982;2023-09-12T09:03:59;26.80;81.60
40077;DHT22;25777;47.824;18.982;2023-09-12T09:06:31;26.90;81.40
40077;DHT22;25777;47.824;18.982;2023-09-12T09:08:58;27.10;79.40
40077;DHT22;25777;47.824;18.982;2023-09-12T09:11:25;27.10;79.40
40077;DHT22;25777;47.824;18.982;2023-09-12T09:13:56;26.80;76.40
40077;DHT22;25777;47.824;18.982;2023-09-12T09:16:23;27.00;78.00
40077;DHT22;25777;47.824;18.982;2023-09-12T09:18:57;27.40;76.40
40077;DHT22;25777;47.824;18.982;2023-09-12T09:21:31;27.60;76.90
40077;DHT22;25777;47.824;18.982;2023-09-12T09:24:06;27.70;78.20
40077;DHT22;25777;47.824;18.982;2023-09-12T09:26:46;27.70;76.40
40077;DHT22;25777;47.824;18.982;2023-09-12T09:29:20;27.70;77.10
40077;DHT22;25777;47.824;18.982;2023-09-12T09:31:48;28.00;78.10
40077;DHT22;25777;47.824;18.982;2023-09-12T09:34:15;28.20;77.30
40077;DHT22;25777;47.824;18.982;2023-09-12T09:36:52;28.40;75.10
40077;DHT22;25777;47.824;18.982;2023-09-12T09:39:29;28.70;76.70
40077;DHT22;25777;47.824;18.982;2023-09-12T09:41:57;28.70;75.80
40077;DHT22;25777;47.824;18.982;2023-09-12T09:44:25;28.70;73.20
40077;DHT22;25777;47.824;18.982;2023-09-12T09:47:01;28.70;75.10
40077;DHT22;25777;47.824;18.982;2023-09-12T09:49:33;28.90;73.10
40077;DHT22;25777;47.824;18.982;2023-09-12T09:52:09;29.00;74.00
40077;DHT22;25777;47.824;18.982;2023-09-12T09:54:54;28.90;70.60
40077;DHT22;25777;47.824;18.982;2023-09-12T09:57:20;29.00;73.70
40077;DHT22;25777;47.824;18.982;2023-09-12T09:59:50;28.90;70.60
40077;DHT22;25777;47.824;18.982;2023-09-12T10:02:22;29.20;68.30
40077;DHT22;25777;47.824;18.982;2023-09-12T10:04:53;29.40;69.90
40077;DHT22;25777;47.824;18.982;2023-09-12T10:07:20;29.60;69.60
40077;DHT22;25777;47.824;18.982;2023-09-12T10:09:47;29.80;69.00
40077;DHT22;25777;47.824;18.982;2023-09-12T10:12:13;29.70;67.50
40077;DHT22;25777;47.824;18.982;2023-09-12T10:14:40;29.70;71.60
40077;DHT22;25777;47.824;18.982;2023-09-12T10:17:20;30.00;67.90
40077;DHT22;25777;47.824;18.982;2023-09-12T10:19:56;29.80;66.90
40077;DHT22;25777;47.824;18.982;2023-09-12T10:22:34;29.80;67.10
40077;DHT22;25777;47.824;18.982;2023-09-12T10:25:05;30.00;65.80
40077;DHT22;25777;47.824;18.982;2023-09-12T10:27:33;30.10;66.90
40077;DHT22;25777;47.824;18.982;2023-09-12T10:30:02;30.30;68.50
40077;DHT22;25777;47.824;18.982;2023-09-12T10:32:30;30.60;64.80
40077;DHT22;25777;47.824;18.982;2023-09-12T10:35:00;30.50;66.70
40077;DHT22;25777;47.824;18.982;2023-09-12T10:37:29;30.50;64.80
40077;DHT22;25777;47.824;18.982;2023-09-12T10:40:01;30.70;62.70
40077;DHT22;25777;47.824;18.982;2023-09-12T10:42:29;30.90;63.80
40077;DHT22;25777;47.824;18.982;2023-09-12T10:44:59;30.80;62.10
40077;DHT22;25777;47.824;18.982;2023-09-12T10:47:26;30.80;64.20
40077;DHT22;25777;47.824;18.982;2023-09-12T10:49:54;30.90;61.60
40077;DHT22;25777;47.824;18.982;2023-09-12T10:52:28;30.90;59.20
40077;DHT22;25777;47.824;18.982;2023-09-12T10:54:58;30.90;59.00
40077;DHT22;25777;47.824;18.982;2023-09-12T10:57:25;31.20;56.50
40077;DHT22;25777;47.824;18.982;2023-09-12T11:00:12;31.20;59.00
40077;DHT22;25777;47.824;18.982;2023-09-12T11:02:39;31.40;60.30
40077;DHT22;25777;47.824;18.982;2023-09-12T11:05:07;31.50;55.20
40077;DHT22;25777;47.824;18.982;2023-09-12T11:07:58;31.90;58.20
40077;DHT22;25777;47.824;18.982;2023-09-12T11:10:27;31.70;58.60
40077;DHT22;25777;47.824;18.982;2023-09-12T11:12:56;31.90;55.70
40077;DHT22;25777;47.824;18.982;2023-09-12T11:15:27;32.20;55.10
40077;DHT22;25777;47.824;18.982;2023-09-12T11:18:00;32.20;52.50
40077;DHT22;25777;47.824;18.982;2023-09-12T11:20:51;31.90;54.70
40077;DHT22;25777;47.824;18.982;2023-09-12T11:23:20;31.70;57.30
40077;DHT22;25777;47.824;18.982;2023-09-12T11:26:12;31.70;55.90
40077;DHT22;25777;47.824;18.982;2023-09-12T11:28:40;31.70;54.50
40077;DHT22;25777;47.824;18.982;2023-09-12T11:31:10;31.30;53.10
40077;DHT22;25777;47.824;18.982;2023-09-12T11:33:40;31.50;52.10
40077;DHT22;25777;47.824;18.982;2023-09-12T11:36:06;31.60;51.40
40077;DHT22;25777;47.824;18.982;2023-09-12T11:38:41;31.70;52.50
40077;DHT22;25777;47.824;18.982;2023-09-12T11:41:07;31.50;53.90
40077;DHT22;25777;47.824;18.982;2023-09-12T11:43:37;31.50;53.50
40077;DHT22;25777;47.824;18.982;2023-09-12T11:46:03;31.50;52.50
40077;DHT22;25777;47.824;18.982;2023-09-12T11:48:41;31.60;51.30
40077;DHT22;25777;47.824;18.982;2023-09-12T11:51:07;31.70;51.10
40077;DHT22;25777;47.824;18.982;2023-09-12T11:53:34;31.80;51.60
40077;DHT22;25777;47.824;18.982;2023-09-12T11:56:01;31.50;50.40
40077;DHT22;25777;47.824;18.982;2023-09-12T11:58:29;31.20;56.10
40077;DHT22;25777;47.824;18.982;2023-09-12T12:00:57;31.20;54.10
40077;DHT22;25777;47.824;18.982;2023-09-12T12:03:26;31.40;50.60
40077;DHT22;25777;47.824;18.982;2023-09-12T12:05:54;31.30;50.30
40077;DHT22;25777;47.824;18.982;2023-09-12T12:08:23;31.30;50.40
40077;DHT22;25777;47.824;18.982;2023-09-12T12:10:51;31.10;50.80
40077;DHT22;25777;47.824;18.982;2023-09-12T12:13:18;31.00;50.50
40077;DHT22;25777;47.824;18.982;2023-09-12T12:15:44;31.00;52.10
40077;DHT22;25777;47.824;18.982;2023-09-12T12:18:13;31.00;49.90
40077;DHT22;25777;47.824;18.982;2023-09-12T12:20:42;31.10;50.10
40077;DHT22;25777;47.824;18.982;2023-09-12T12:23:08;31.10;49.60
40077;DHT22;25777;47.824;18.982;2023-09-12T12:25:36;31.00;49.70
40077;DHT22;25777;47.824;18.982;2023-09-12T12:28:04;30.90;50.40
40077;DHT22;25777;47.824;18.982;2023-09-12T12:30:34;30.80;49.60
40077;DHT22;25777;47.824;18.982;2023-09-12T12:33:06;31.00;48.90
40077;DHT22;25777;47.824;18.982;2023-09-12T12:35:32;31.00;48.30
40077;DHT22;25777;47.824;18.982;2023-09-12T12:37:59;30.80;49.00
40077;DHT22;25777;47.824;18.982;2023-09-12T12:40:26;30.70;49.50
40077;DHT22;25777;47.824;18.982;2023-09-12T12:42:54;30.60;50.30
40077;DHT22;25777;47.824;18.982;2023-09-12T12:45:23;30.70;48.40
40077;DHT22;25777;47.824;18.982;2023-09-12T12:48:00;30.60;51.50
40077;DHT22;25777;47.824;18.982;2023-09-12T12:50:27;30.60;50.90
40077;DHT22;25777;47.824;18.982;2023-09-12T12:52:54;30.60;48.80
40077;DHT22;25777;47.824;18.982;2023-09-12T12:55:26;30.80;49.10
40077;DHT22;25777;47.824;18.982;2023-09-12T12:57:52;30.60;49.60
40077;DHT22;25777;47.824;18.982;2023-09-12T13:00:24;30.70;49.40
40077;DHT22;25777;47.824;18.982;2023-09-12T13:02:50;30.80;48.50
40077;DHT22;25777;47.824;18.982;2023-09-12T13:05:29;30.90;46.90
40077;DHT22;25777;47.824;18.982;2023-09-12T13:07:58;30.90;47.90
40077;DHT22;25777;47.824;18.982;2023-09-12T13:10:30;31.00;47.50
40077;DHT22;25777;47.824;18.982;2023-09-12T13:12:56;31.00;52.00
40077;DHT22;25777;47.824;18.982;2023-09-12T13:15:22;30.70;49.70
40077;DHT22;25777;47.824;18.982;2023-09-12T13:17:48;31.00;48.00
40077;DHT22;25777;47.824;18.982;2023-09-12T13:20:15;31.10;49.60
40077;DHT22;25777;47.824;18.982;2023-09-12T13:22:45;31.00;51.30
40077;DHT22;25777;47.824;18.982;2023-09-12T13:25:19;31.20;50.10
40077;DHT22;25777;47.824;18.982;2023-09-12T13:27:51;31.50;47.80
40077;DHT22;25777;47.824;18.982;2023-09-12T13:30:18;31.80;49.00
40077;DHT22;25777;47.824;18.982;2023-09-12T13:32:46;31.60;50.70
40077;DHT22;25777;47.824;18.982;2023-09-12T13:35:13;31.70;48.30
40077;DHT22;25777;47.824;18.982;2023-09-12T13:37:40;31.60;49.20
40077;DHT22;25777;47.824;18.982;2023-09-12T13:40:07;31.50;49.20
40077;DHT22;25777;47.824;18.982;2023-09-12T13:42:36;31.70;48.30
40077;DHT22;25777;47.824;18.982;2023-09-12T13:45:08;31.60;49.00
40077;DHT22;25777;47.824;18.982;2023-09-12T13:47:42;31.90;48.00
40077;DHT22;25777;47.824;18.982;2023-09-12T13:50:08;31.90;51.30
40077;DHT22;25777;47.824;18.982;2023-09-12T13:52:35;31.70;48.50
40077;DHT22;25777;47.824;18.982;2023-09-12T13:55:01;31.40;53.30
40077;DHT22;25777;47.824;18.982;2023-09-12T13:57:29;31.20;55.00
40077;DHT22;25777;47.824;18.982;2023-09-12T13:59:55;31.40;48.10
40077;DHT22;25777;47.824;18.982;2023-09-12T14:02:20;31.50;50.10
40077;DHT22;25777;47.824;18.982;2023-09-12T14:04:46;31.10;51.50
40077;DHT22;25777;47.824;18.982;2023-09-12T14:07:13;31.60;49.80
40077;DHT22;25777;47.824;18.982;2023-09-12T14:09:40;31.80;49.20
40077;DHT22;25777;47.824;18.982;2023-09-12T14:12:09;31.80;50.00
40077;DHT22;25777;47.824;18.982;2023-09-12T14:14:42;31.80;47.20
40077;DHT22;25777;47.824;18.982;2023-09-12T14:17:13;31.90;50.00
40077;DHT22;25777;47.824;18.982;2023-09-12T14:19:40;31.60;47.40
40077;DHT22;25777;47.824;18.982;2023-09-12T14:22:08;31.40;48.10
40077;DHT22;25777;47.824;18.982;2023-09-12T14:24:36;31.40;48.90
40077;DHT22;25777;47.824;18.982;2023-09-12T14:27:04;31.40;48.60
40077;DHT22;25777;47.824;18.982;2023-09-12T14:29:30;31.00;52.70
40077;DHT22;25777;47.824;18.982;2023-09-12T14:32:00;30.50;50.10
40077;DHT22;25777;47.824;18.982;2023-09-12T14:34:26;30.50;50.40
40077;DHT22;25777;47.824;18.982;2023-09-12T14:36:56;30.40;50.80
40077;DHT22;25777;47.824;18.982;2023-09-12T14:39:26;30.10;52.00
40077;DHT22;25777;47.824;18.982;2023-09-12T14:41:54;29.90;53.80
40077;DHT22;25777;47.824;18.982;2023-09-12T14:44:24;29.80;53.40
40077;DHT22;25777;47.824;18.982;2023-09-12T14:46:51;29.70;53.90
40077;DHT22;25777;47.824;18.982;2023-09-12T14:49:19;29.50;54.60
40077;DHT22;25777;47.824;18.982;2023-09-12T14:51:45;29.20;54.30
40077;DHT22;25777;47.824;18.982;2023-09-12T14:54:13;28.90;54.70
40077;DHT22;25777;47.824;18.982;2023-09-12T14:56:39;28.80;54.00
40077;DHT22;25777;47.824;18.982;2023-09-12T14:59:07;28.80;54.20
40077;DHT22;25777;47.824;18.982;2023-09-12T15:01:34;28.50;58.40
40077;DHT22;25777;47.824;18.982;2023-09-12T15:04:13;28.20;58.40
40077;DHT22;25777;47.824;18.982;2023-09-12T15:06:40;27.90;60.40
40077;DHT22;25777;47.824;18.982;2023-09-12T15:09:07;27.70;61.80
40077;DHT22;25777;47.824;18.982;2023-09-12T15:11:35;27.70;60.60
40077;DHT22;25777;47.824;18.982;2023-09-12T15:14:01;27.60;59.20
40077;DHT22;25777;47.824;18.982;2023-09-12T15:16:28;27.70;59.60
40077;DHT22;25777;47.824;18.982;2023-09-12T15:18:59;27.70;58.40
40077;DHT22;25777;47.824;18.982;2023-09-12T15:21:26;27.80;59.90
40077;DHT22;25777;47.824;18.982;2023-09-12T15:23:51;27.90;60.20
40077;DHT22;25777;47.824;18.982;2023-09-12T15:26:17;27.70;59.70
40077;DHT22;25777;47.824;18.982;2023-09-12T15:28:43;27.60;61.20
40077;DHT22;25777;47.824;18.982;2023-09-12T15:31:10;27.30;63.20
40077;DHT22;25777;47.824;18.982;2023-09-12T15:33:41;27.10;63.90
40077;DHT22;25777;47.824;18.982;2023-09-12T15:36:08;27.00;65.10